Lester B. Pearson International Airport
CYYZ : now visible

Airfield :











YOU CAN JOIN US ON...

 
LOGIN :

Register | Disclaimer

   EN    FR    IT 

 









Legend :    VFR   Marginal VFR   IFR   Intensive IFR   Very Intensive IFR
Visi :
Ceiling :
>= 8 km
>= 3000ft
5 to 8 km
1000 to 3000 ft
1500m to 5 km
500 to 1000 ft
800 to 1500m
200 to 500 ft
< 800m
< 200 ft
Symbols :   Thunderstorms  Fog  Heavy snow  Heavy precipitations  Wind > 20 kt






- Airport Elevation : 569 ft
- IATA code : YYZ


CYYZ - Lester B. Pearson International

CURRENT METAR :
  • 191000Z 33004KT 15SM SKC 11/08 A3024 RMK SLP242

EXPIRED METARs :
  • 190900Z 36005KT 15SM FEW250 11/08 A3022 RMK CI1 CI TR SLP237
  • 190800Z 36006KT 15SM FEW250 11/09 A3022 RMK CI1 CI TR SLP234

TAF TAF CYYZ
Valid from the 19 at 09:00 until the 20 at 12:00 UTC


190838Z 1909/2012 35006KT P6SM SKC
FM191500 08005KT P6SM FEW020
BECMG 1916/1918 15010KT SKC
FM200500 07006KT P6SM SKC
PROB30 2008/2012 2SM BR SCT004 RMK NXT FCST BY 191200Z
CZYZ FIR / North America



MET'MAP, your aeronautical weather chart ! - Copyright ORBIFLY December 2007 - Disclaimer

ORBIFLY MET'MAP TEAM :

Programming & Development : Alexandra Zaïnal
Concept & original design : Baudouin d'Aumeries
Assistance for programming : Marc-Olivier Méhu
Technical & hardware support : Manuel Goepfert

Contact : metmap@orbifly.com




SOURCES & CREDITS :

   NOAA       Earth
Advisory